sensor_id;sensor_type;location;lat;lon;timestamp;temperature;humidity
72940;DHT22;61094;51.154;13.570;2023-02-17T00:01:15;9.80;97.10
72940;DHT22;61094;51.154;13.570;2023-02-17T00:03:17;9.80;96.90
72940;DHT22;61094;51.154;13.570;2023-02-17T00:05:20;9.80;96.70
72940;DHT22;61094;51.154;13.570;2023-02-17T00:07:22;9.80;97.40
72940;DHT22;61094;51.154;13.570;2023-02-17T00:09:23;9.80;97.50
72940;DHT22;61094;51.154;13.570;2023-02-17T00:11:25;9.90;97.10
72940;DHT22;61094;51.154;13.570;2023-02-17T00:13:27;9.80;97.20
72940;DHT22;61094;51.154;13.570;2023-02-17T00:15:29;9.90;97.60
72940;DHT22;61094;51.154;13.570;2023-02-17T00:17:31;9.90;97.90
72940;DHT22;61094;51.154;13.570;2023-02-17T00:19:32;9.90;96.40
72940;DHT22;61094;51.154;13.570;2023-02-17T00:21:35;9.90;97.40
72940;DHT22;61094;51.154;13.570;2023-02-17T00:23:37;9.90;96.80
72940;DHT22;61094;51.154;13.570;2023-02-17T00:25:39;9.90;96.90
72940;DHT22;61094;51.154;13.570;2023-02-17T00:27:40;9.90;96.10
72940;DHT22;61094;51.154;13.570;2023-02-17T00:29:42;9.90;96.60
72940;DHT22;61094;51.154;13.570;2023-02-17T00:31:44;9.90;96.40
72940;DHT22;61094;51.154;13.570;2023-02-17T00:33:46;9.90;97.10
72940;DHT22;61094;51.154;13.570;2023-02-17T00:36:01;9.90;96.30
72940;DHT22;61094;51.154;13.570;2023-02-17T00:38:05;9.90;96.60
72940;DHT22;61094;51.154;13.570;2023-02-17T00:40:07;9.90;96.30
72940;DHT22;61094;51.154;13.570;2023-02-17T00:42:09;9.90;96.00
72940;DHT22;61094;51.154;13.570;2023-02-17T00:44:14;9.90;95.50
72940;DHT22;61094;51.154;13.570;2023-02-17T00:46:17;9.90;96.90
72940;DHT22;61094;51.154;13.570;2023-02-17T00:48:19;9.90;97.00
72940;DHT22;61094;51.154;13.570;2023-02-17T00:50:21;9.90;97.00
72940;DHT22;61094;51.154;13.570;2023-02-17T00:52:22;9.90;96.80
72940;DHT22;61094;51.154;13.570;2023-02-17T00:54:25;9.90;96.60
72940;DHT22;61094;51.154;13.570;2023-02-17T00:56:27;9.90;95.00
72940;DHT22;61094;51.154;13.570;2023-02-17T00:58:29;9.90;96.30
72940;DHT22;61094;51.154;13.570;2023-02-17T01:00:30;9.90;96.90
72940;DHT22;61094;51.154;13.570;2023-02-17T01:02:34;9.90;96.50
72940;DHT22;61094;51.154;13.570;2023-02-17T01:04:36;9.90;95.90
72940;DHT22;61094;51.154;13.570;2023-02-17T01:06:38;9.90;96.10
72940;DHT22;61094;51.154;13.570;2023-02-17T01:08:40;9.90;95.90
72940;DHT22;61094;51.154;13.570;2023-02-17T01:10:45;9.90;95.80
72940;DHT22;61094;51.154;13.570;2023-02-17T01:12:47;9.90;95.90
72940;DHT22;61094;51.154;13.570;2023-02-17T01:14:49;9.90;96.60
72940;DHT22;61094;51.154;13.570;2023-02-17T01:16:51;9.80;96.40
72940;DHT22;61094;51.154;13.570;2023-02-17T01:18:54;9.90;95.80
72940;DHT22;61094;51.154;13.570;2023-02-17T01:20:56;9.80;96.90
72940;DHT22;61094;51.154;13.570;2023-02-17T01:22:57;9.90;96.30
72940;DHT22;61094;51.154;13.570;2023-02-17T01:24:59;9.90;96.40
72940;DHT22;61094;51.154;13.570;2023-02-17T01:27:03;9.90;96.10
72940;DHT22;61094;51.154;13.570;2023-02-17T01:29:06;9.90;96.00
72940;DHT22;61094;51.154;13.570;2023-02-17T01:31:09;9.90;96.50
72940;DHT22;61094;51.154;13.570;2023-02-17T01:33:11;9.90;97.10
72940;DHT22;61094;51.154;13.570;2023-02-17T01:35:14;9.90;96.30
72940;DHT22;61094;51.154;13.570;2023-02-17T01:37:15;9.90;95.70
72940;DHT22;61094;51.154;13.570;2023-02-17T01:39:17;9.90;96.90
72940;DHT22;61094;51.154;13.570;2023-02-17T01:41:22;9.90;96.90
72940;DHT22;61094;51.154;13.570;2023-02-17T01:43:27;9.90;96.30
72940;DHT22;61094;51.154;13.570;2023-02-17T01:45:35;9.90;96.80
72940;DHT22;61094;51.154;13.570;2023-02-17T01:47:37;9.90;95.90
72940;DHT22;61094;51.154;13.570;2023-02-17T01:49:39;9.90;96.30
72940;DHT22;61094;51.154;13.570;2023-02-17T01:51:42;9.90;96.60
72940;DHT22;61094;51.154;13.570;2023-02-17T01:53:49;9.90;96.30
72940;DHT22;61094;51.154;13.570;2023-02-17T01:55:53;9.90;95.90
72940;DHT22;61094;51.154;13.570;2023-02-17T01:57:58;9.90;96.30
72940;DHT22;61094;51.154;13.570;2023-02-17T02:00:05;9.90;96.70
72940;DHT22;61094;51.154;13.570;2023-02-17T02:02:13;9.90;96.30
72940;DHT22;61094;51.154;13.570;2023-02-17T02:04:18;9.90;96.00
72940;DHT22;61094;51.154;13.570;2023-02-17T02:06:23;9.90;96.50
72940;DHT22;61094;51.154;13.570;2023-02-17T02:08:27;9.90;97.10
72940;DHT22;61094;51.154;13.570;2023-02-17T02:10:30;9.90;96.50
72940;DHT22;61094;51.154;13.570;2023-02-17T02:12:34;9.90;96.50
72940;DHT22;61094;51.154;13.570;2023-02-17T02:14:36;9.90;96.90
72940;DHT22;61094;51.154;13.570;2023-02-17T02:16:44;9.90;96.10
72940;DHT22;61094;51.154;13.570;2023-02-17T02:18:50;9.90;97.00
72940;DHT22;61094;51.154;13.570;2023-02-17T02:21:16;9.90;95.50
72940;DHT22;61094;51.154;13.570;2023-02-17T02:23:33;9.90;96.90
72940;DHT22;61094;51.154;13.570;2023-02-17T02:26:12;9.90;96.60
72940;DHT22;61094;51.154;13.570;2023-02-17T02:28:26;9.90;97.10
72940;DHT22;61094;51.154;13.570;2023-02-17T02:31:02;9.90;96.80
72940;DHT22;61094;51.154;13.570;2023-02-17T02:33:15;9.90;96.90
72940;DHT22;61094;51.154;13.570;2023-02-17T02:35:24;9.90;96.50
72940;DHT22;61094;51.154;13.570;2023-02-17T02:37:33;9.90;97.10
72940;DHT22;61094;51.154;13.570;2023-02-17T02:39:39;9.90;96.20
72940;DHT22;61094;51.154;13.570;2023-02-17T02:41:44;10.00;96.60
72940;DHT22;61094;51.154;13.570;2023-02-17T02:43:48;9.90;97.20
72940;DHT22;61094;51.154;13.570;2023-02-17T02:45:50;9.90;97.30
72940;DHT22;61094;51.154;13.570;2023-02-17T02:47:54;9.90;97.40
72940;DHT22;61094;51.154;13.570;2023-02-17T02:50:00;9.90;97.60
72940;DHT22;61094;51.154;13.570;2023-02-17T02:52:05;9.90;98.00
72940;DHT22;61094;51.154;13.570;2023-02-17T02:54:18;9.80;97.60
72940;DHT22;61094;51.154;13.570;2023-02-17T02:56:33;9.90;97.50
72940;DHT22;61094;51.154;13.570;2023-02-17T02:58:46;9.80;97.80
72940;DHT22;61094;51.154;13.570;2023-02-17T03:00:58;9.80;97.80
72940;DHT22;61094;51.154;13.570;2023-02-17T03:03:08;9.80;98.00
72940;DHT22;61094;51.154;13.570;2023-02-17T03:05:18;9.80;98.10
72940;DHT22;61094;51.154;13.570;2023-02-17T03:07:23;9.80;97.60
72940;DHT22;61094;51.154;13.570;2023-02-17T03:09:27;9.80;97.30
72940;DHT22;61094;51.154;13.570;2023-02-17T03:11:29;9.80;98.00
72940;DHT22;61094;51.154;13.570;2023-02-17T03:13:36;9.70;97.60
72940;DHT22;61094;51.154;13.570;2023-02-17T03:15:41;9.80;97.80
72940;DHT22;61094;51.154;13.570;2023-02-17T03:17:45;9.80;97.80
72940;DHT22;61094;51.154;13.570;2023-02-17T03:19:46;9.80;98.00
72940;DHT22;61094;51.154;13.570;2023-02-17T03:21:54;9.80;97.70
72940;DHT22;61094;51.154;13.570;2023-02-17T03:23:57;9.80;97.90
72940;DHT22;61094;51.154;13.570;2023-02-17T03:25:59;9.80;97.80
72940;DHT22;61094;51.154;13.570;2023-02-17T03:28:00;9.80;97.80
72940;DHT22;61094;51.154;13.570;2023-02-17T03:30:02;9.80;97.70
72940;DHT22;61094;51.154;13.570;2023-02-17T03:32:04;9.80;98.10
72940;DHT22;61094;51.154;13.570;2023-02-17T03:34:06;9.80;97.90
72940;DHT22;61094;51.154;13.570;2023-02-17T03:36:08;9.80;97.50
72940;DHT22;61094;51.154;13.570;2023-02-17T03:38:11;9.90;97.50
72940;DHT22;61094;51.154;13.570;2023-02-17T03:40:12;9.80;98.00
72940;DHT22;61094;51.154;13.570;2023-02-17T03:42:14;9.90;97.30
72940;DHT22;61094;51.154;13.570;2023-02-17T03:44:16;9.90;97.90
72940;DHT22;61094;51.154;13.570;2023-02-17T03:46:18;9.90;97.90
72940;DHT22;61094;51.154;13.570;2023-02-17T03:48:19;9.90;98.10
72940;DHT22;61094;51.154;13.570;2023-02-17T03:50:21;9.90;97.90
72940;DHT22;61094;51.154;13.570;2023-02-17T03:52:23;9.90;98.00
72940;DHT22;61094;51.154;13.570;2023-02-17T03:54:26;9.90;98.10
72940;DHT22;61094;51.154;13.570;2023-02-17T03:56:28;9.90;97.80
72940;DHT22;61094;51.154;13.570;2023-02-17T03:58:29;9.90;98.10
72940;DHT22;61094;51.154;13.570;2023-02-17T04:00:31;9.90;98.30
72940;DHT22;61094;51.154;13.570;2023-02-17T04:02:33;9.90;98.70
72940;DHT22;61094;51.154;13.570;2023-02-17T04:04:34;9.90;98.90
72940;DHT22;61094;51.154;13.570;2023-02-17T04:06:37;9.80;99.40
72940;DHT22;61094;51.154;13.570;2023-02-17T04:08:39;9.80;99.40
72940;DHT22;61094;51.154;13.570;2023-02-17T04:10:42;9.70;99.90
72940;DHT22;61094;51.154;13.570;2023-02-17T04:12:44;9.70;99.90
72940;DHT22;61094;51.154;13.570;2023-02-17T04:14:46;9.60;99.90
72940;DHT22;61094;51.154;13.570;2023-02-17T04:16:47;9.50;99.90
72940;DHT22;61094;51.154;13.570;2023-02-17T04:18:49;9.50;99.90
72940;DHT22;61094;51.154;13.570;2023-02-17T04:20:51;9.40;99.90
72940;DHT22;61094;51.154;13.570;2023-02-17T04:22:53;9.30;99.90
72940;DHT22;61094;51.154;13.570;2023-02-17T04:24:55;9.30;99.90
72940;DHT22;61094;51.154;13.570;2023-02-17T04:26:58;9.20;99.90
72940;DHT22;61094;51.154;13.570;2023-02-17T04:28:59;9.20;99.90
72940;DHT22;61094;51.154;13.570;2023-02-17T04:31:03;9.10;99.90
72940;DHT22;61094;51.154;13.570;2023-02-17T04:33:05;9.10;99.90
72940;DHT22;61094;51.154;13.570;2023-02-17T04:35:07;9.10;99.90
72940;DHT22;61094;51.154;13.570;2023-02-17T04:37:08;9.00;99.90
72940;DHT22;61094;51.154;13.570;2023-02-17T04:39:10;9.00;99.90
72940;DHT22;61094;51.154;13.570;2023-02-17T04:41:12;9.00;99.90
72940;DHT22;61094;51.154;13.570;2023-02-17T04:43:15;9.00;99.90
72940;DHT22;61094;51.154;13.570;2023-02-17T04:45:17;9.00;99.90
72940;DHT22;61094;51.154;13.570;2023-02-17T04:47:18;9.00;99.90
72940;DHT22;61094;51.154;13.570;2023-02-17T04:49:20;9.00;99.90
72940;DHT22;61094;51.154;13.570;2023-02-17T04:51:21;9.00;99.90
72940;DHT22;61094;51.154;13.570;2023-02-17T04:53:23;9.00;99.90
72940;DHT22;61094;51.154;13.570;2023-02-17T04:55:25;9.00;99.90
72940;DHT22;61094;51.154;13.570;2023-02-17T04:57:26;9.00;99.90
72940;DHT22;61094;51.154;13.570;2023-02-17T04:59:29;9.00;99.90
72940;DHT22;61094;51.154;13.570;2023-02-17T05:01:31;9.10;99.90
72940;DHT22;61094;51.154;13.570;2023-02-17T05:03:33;9.10;99.90
72940;DHT22;61094;51.154;13.570;2023-02-17T05:05:34;9.10;99.90
72940;DHT22;61094;51.154;13.570;2023-02-17T05:07:36;9.10;99.90
72940;DHT22;61094;51.154;13.570;2023-02-17T05:09:38;9.10;99.90
72940;DHT22;61094;51.154;13.570;2023-02-17T05:11:40;9.10;99.90
72940;DHT22;61094;51.154;13.570;2023-02-17T05:13:42;9.10;99.90
72940;DHT22;61094;51.154;13.570;2023-02-17T05:15:45;9.10;99.90
72940;DHT22;61094;51.154;13.570;2023-02-17T05:17:47;9.10;99.90
72940;DHT22;61094;51.154;13.570;2023-02-17T05:19:48;9.20;99.90
72940;DHT22;61094;51.154;13.570;2023-02-17T05:21:50;9.20;99.90
72940;DHT22;61094;51.154;13.570;2023-02-17T05:23:51;9.20;99.90
72940;DHT22;61094;51.154;13.570;2023-02-17T05:25:53;9.20;99.90
72940;DHT22;61094;51.154;13.570;2023-02-17T05:27:55;9.20;99.90
72940;DHT22;61094;51.154;13.570;2023-02-17T05:29:56;9.20;99.90
72940;DHT22;61094;51.154;13.570;2023-02-17T05:31:59;9.20;99.90
72940;DHT22;61094;51.154;13.570;2023-02-17T05:34:01;9.30;99.90
72940;DHT22;61094;51.154;13.570;2023-02-17T05:36:04;9.20;99.90
72940;DHT22;61094;51.154;13.570;2023-02-17T05:38:07;9.20;99.90
72940;DHT22;61094;51.154;13.570;2023-02-17T05:40:09;9.20;99.90
72940;DHT22;61094;51.154;13.570;2023-02-17T05:42:11;9.20;99.90
72940;DHT22;61094;51.154;13.570;2023-02-17T05:44:13;9.30;99.90
72940;DHT22;61094;51.154;13.570;2023-02-17T05:46:14;9.20;99.90
72940;DHT22;61094;51.154;13.570;2023-02-17T05:48:17;9.30;99.90
72940;DHT22;61094;51.154;13.570;2023-02-17T05:50:19;9.20;99.90
72940;DHT22;61094;51.154;13.570;2023-02-17T05:52:22;9.20;99.90
72940;DHT22;61094;51.154;13.570;2023-02-17T05:54:24;9.20;99.90
72940;DHT22;61094;51.154;13.570;2023-02-17T05:56:26;9.20;99.90
72940;DHT22;61094;51.154;13.570;2023-02-17T05:58:28;9.20;99.90
72940;DHT22;61094;51.154;13.570;2023-02-17T06:00:29;9.20;99.90
72940;DHT22;61094;51.154;13.570;2023-02-17T06:02:31;9.20;99.90
72940;DHT22;61094;51.154;13.570;2023-02-17T06:04:35;9.20;99.90
72940;DHT22;61094;51.154;13.570;2023-02-17T06:06:36;9.20;99.90
72940;DHT22;61094;51.154;13.570;2023-02-17T06:08:38;9.30;99.90
72940;DHT22;61094;51.154;13.570;2023-02-17T06:10:41;9.30;99.90
72940;DHT22;61094;51.154;13.570;2023-02-17T06:12:43;9.30;99.90
72940;DHT22;61094;51.154;13.570;2023-02-17T06:14:44;9.30;99.90
72940;DHT22;61094;51.154;13.570;2023-02-17T06:16:46;9.30;99.90
72940;DHT22;61094;51.154;13.570;2023-02-17T06:18:48;9.30;99.90
72940;DHT22;61094;51.154;13.570;2023-02-17T06:20:53;9.40;99.90
72940;DHT22;61094;51.154;13.570;2023-02-17T06:22:55;9.40;99.90
72940;DHT22;61094;51.154;13.570;2023-02-17T06:24:56;9.40;99.90
72940;DHT22;61094;51.154;13.570;2023-02-17T06:26:59;9.40;99.90
72940;DHT22;61094;51.154;13.570;2023-02-17T06:29:00;9.40;99.90
72940;DHT22;61094;51.154;13.570;2023-02-17T06:31:02;9.40;99.90
72940;DHT22;61094;51.154;13.570;2023-02-17T06:33:04;9.40;99.90
72940;DHT22;61094;51.154;13.570;2023-02-17T06:35:06;9.40;99.90
72940;DHT22;61094;51.154;13.570;2023-02-17T06:37:09;9.50;99.90
72940;DHT22;61094;51.154;13.570;2023-02-17T06:39:11;9.50;99.90
72940;DHT22;61094;51.154;13.570;2023-02-17T06:41:13;9.50;99.90
72940;DHT22;61094;51.154;13.570;2023-02-17T06:43:14;9.50;99.90
72940;DHT22;61094;51.154;13.570;2023-02-17T06:45:16;9.50;99.90
72940;DHT22;61094;51.154;13.570;2023-02-17T06:47:17;9.50;99.90
72940;DHT22;61094;51.154;13.570;2023-02-17T06:49:19;9.60;99.90
72940;DHT22;61094;51.154;13.570;2023-02-17T06:51:21;9.60;99.90
72940;DHT22;61094;51.154;13.570;2023-02-17T06:53:24;9.60;99.90
72940;DHT22;61094;51.154;13.570;2023-02-17T06:55:26;9.60;99.90
72940;DHT22;61094;51.154;13.570;2023-02-17T06:57:27;9.60;99.90
72940;DHT22;61094;51.154;13.570;2023-02-17T06:59:30;9.60;99.90
72940;DHT22;61094;51.154;13.570;2023-02-17T07:01:32;9.60;99.90
72940;DHT22;61094;51.154;13.570;2023-02-17T07:03:34;9.70;99.90
72940;DHT22;61094;51.154;13.570;2023-02-17T07:05:36;9.70;99.90
72940;DHT22;61094;51.154;13.570;2023-02-17T07:07:39;9.70;99.90
72940;DHT22;61094;51.154;13.570;2023-02-17T07:09:42;9.70;99.90
72940;DHT22;61094;51.154;13.570;2023-02-17T07:11:43;9.70;99.90
72940;DHT22;61094;51.154;13.570;2023-02-17T07:13:45;9.70;99.90
72940;DHT22;61094;51.154;13.570;2023-02-17T07:15:47;9.80;99.90
72940;DHT22;61094;51.154;13.570;2023-02-17T07:17:49;9.70;99.90
72940;DHT22;61094;51.154;13.570;2023-02-17T07:19:51;9.80;99.90
72940;DHT22;61094;51.154;13.570;2023-02-17T07:21:52;9.80;99.90
72940;DHT22;61094;51.154;13.570;2023-02-17T07:23:54;9.80;99.90
72940;DHT22;61094;51.154;13.570;2023-02-17T07:26:00;9.80;99.90
72940;DHT22;61094;51.154;13.570;2023-02-17T07:28:02;9.80;99.90
72940;DHT22;61094;51.154;13.570;2023-02-17T07:30:05;9.90;99.90
72940;DHT22;61094;51.154;13.570;2023-02-17T07:32:07;9.90;99.90
72940;DHT22;61094;51.154;13.570;2023-02-17T07:34:09;9.90;99.90
72940;DHT22;61094;51.154;13.570;2023-02-17T07:36:12;9.90;99.90
72940;DHT22;61094;51.154;13.570;2023-02-17T07:38:14;9.90;99.90
72940;DHT22;61094;51.154;13.570;2023-02-17T07:40:16;9.90;99.90
72940;DHT22;61094;51.154;13.570;2023-02-17T07:42:19;10.00;99.90
72940;DHT22;61094;51.154;13.570;2023-02-17T07:44:21;10.00;99.90
72940;DHT22;61094;51.154;13.570;2023-02-17T07:46:23;10.00;99.90
72940;DHT22;61094;51.154;13.570;2023-02-17T07:48:25;10.00;99.90
72940;DHT22;61094;51.154;13.570;2023-02-17T07:50:27;10.10;99.90
72940;DHT22;61094;51.154;13.570;2023-02-17T07:52:29;10.10;99.90
72940;DHT22;61094;51.154;13.570;2023-02-17T07:54:30;10.10;99.90
72940;DHT22;61094;51.154;13.570;2023-02-17T07:56:32;10.10;99.90
72940;DHT22;61094;51.154;13.570;2023-02-17T07:58:37;10.10;99.90
72940;DHT22;61094;51.154;13.570;2023-02-17T08:00:39;10.10;99.90
72940;DHT22;61094;51.154;13.570;2023-02-17T08:02:40;10.20;99.90
72940;DHT22;61094;51.154;13.570;2023-02-17T08:04:42;10.10;99.90
72940;DHT22;61094;51.154;13.570;2023-02-17T08:06:44;10.20;99.90
72940;DHT22;61094;51.154;13.570;2023-02-17T08:08:45;10.20;99.90
72940;DHT22;61094;51.154;13.570;2023-02-17T08:11:04;10.20;99.90
72940;DHT22;61094;51.154;13.570;2023-02-17T08:13:25;10.20;99.90
72940;DHT22;61094;51.154;13.570;2023-02-17T08:15:31;10.20;99.90
72940;DHT22;61094;51.154;13.570;2023-02-17T08:17:33;10.30;99.90
72940;DHT22;61094;51.154;13.570;2023-02-17T08:19:35;10.30;99.90
72940;DHT22;61094;51.154;13.570;2023-02-17T08:21:36;10.20;99.90
72940;DHT22;61094;51.154;13.570;2023-02-17T08:23:38;10.30;99.90
72940;DHT22;61094;51.154;13.570;2023-02-17T08:25:40;10.30;99.90
72940;DHT22;61094;51.154;13.570;2023-02-17T08:27:41;10.30;99.90
72940;DHT22;61094;51.154;13.570;2023-02-17T08:29:44;10.30;99.90
72940;DHT22;61094;51.154;13.570;2023-02-17T08:31:50;10.30;99.90
72940;DHT22;61094;51.154;13.570;2023-02-17T08:33:53;10.30;99.90
72940;DHT22;61094;51.154;13.570;2023-02-17T08:35:55;10.40;99.90
72940;DHT22;61094;51.154;13.570;2023-02-17T08:37:57;10.40;99.90
72940;DHT22;61094;51.154;13.570;2023-02-17T08:39:58;10.40;99.90
72940;DHT22;61094;51.154;13.570;2023-02-17T08:42:00;10.40;99.90
72940;DHT22;61094;51.154;13.570;2023-02-17T08:44:06;10.40;99.90
72940;DHT22;61094;51.154;13.570;2023-02-17T08:46:09;10.40;99.90
72940;DHT22;61094;51.154;13.570;2023-02-17T08:48:13;10.30;99.90
72940;DHT22;61094;51.154;13.570;2023-02-17T08:50:14;10.30;99.90
72940;DHT22;61094;51.154;13.570;2023-02-17T08:52:16;10.40;99.90
72940;DHT22;61094;51.154;13.570;2023-02-17T08:54:18;10.40;99.90
72940;DHT22;61094;51.154;13.570;2023-02-17T08:56:20;10.40;99.90
72940;DHT22;61094;51.154;13.570;2023-02-17T08:58:22;10.40;99.90
72940;DHT22;61094;51.154;13.570;2023-02-17T09:00:23;10.40;99.90
72940;DHT22;61094;51.154;13.570;2023-02-17T09:02:25;10.40;99.90
72940;DHT22;61094;51.154;13.570;2023-02-17T09:04:28;10.40;99.90
72940;DHT22;61094;51.154;13.570;2023-02-17T09:06:34;10.50;99.90
72940;DHT22;61094;51.154;13.570;2023-02-17T09:08:36;10.50;99.90
72940;DHT22;61094;51.154;13.570;2023-02-17T09:10:40;10.50;99.90
72940;DHT22;61094;51.154;13.570;2023-02-17T09:12:42;10.50;99.90
72940;DHT22;61094;51.154;13.570;2023-02-17T09:14:43;10.50;99.90
72940;DHT22;61094;51.154;13.570;2023-02-17T09:16:45;10.60;99.90
72940;DHT22;61094;51.154;13.570;2023-02-17T09:18:47;10.60;99.90
72940;DHT22;61094;51.154;13.570;2023-02-17T09:20:50;10.60;99.90
72940;DHT22;61094;51.154;13.570;2023-02-17T09:22:51;10.70;99.90
72940;DHT22;61094;51.154;13.570;2023-02-17T09:24:53;10.70;99.90
72940;DHT22;61094;51.154;13.570;2023-02-17T09:26:55;10.70;99.90
72940;DHT22;61094;51.154;13.570;2023-02-17T09:28:56;10.70;99.90
72940;DHT22;61094;51.154;13.570;2023-02-17T09:30:59;10.80;99.90
72940;DHT22;61094;51.154;13.570;2023-02-17T09:33:07;10.80;99.90
72940;DHT22;61094;51.154;13.570;2023-02-17T09:35:10;10.90;99.90
72940;DHT22;61094;51.154;13.570;2023-02-17T09:37:13;10.90;99.90
72940;DHT22;61094;51.154;13.570;2023-02-17T09:39:16;11.00;99.90
72940;DHT22;61094;51.154;13.570;2023-02-17T09:41:21;11.00;99.90
72940;DHT22;61094;51.154;13.570;2023-02-17T09:43:26;11.10;99.90
72940;DHT22;61094;51.154;13.570;2023-02-17T09:45:33;11.10;99.90
72940;DHT22;61094;51.154;13.570;2023-02-17T09:47:38;11.10;99.90
72940;DHT22;61094;51.154;13.570;2023-02-17T09:49:43;11.20;99.90
72940;DHT22;61094;51.154;13.570;2023-02-17T09:51:50;11.20;99.90
72940;DHT22;61094;51.154;13.570;2023-02-17T09:54:03;11.30;99.90
72940;DHT22;61094;51.154;13.570;2023-02-17T09:56:09;11.40;99.90
72940;DHT22;61094;51.154;13.570;2023-02-17T09:58:14;11.40;99.90
72940;DHT22;61094;51.154;13.570;2023-02-17T10:00:21;11.40;99.90
72940;DHT22;61094;51.154;13.570;2023-02-17T10:02:26;11.40;99.90
72940;DHT22;61094;51.154;13.570;2023-02-17T10:04:34;11.50;99.90
72940;DHT22;61094;51.154;13.570;2023-02-17T10:06:39;11.50;99.90
72940;DHT22;61094;51.154;13.570;2023-02-17T10:08:47;11.50;99.90
72940;DHT22;61094;51.154;13.570;2023-02-17T10:10:53;11.50;99.60
72940;DHT22;61094;51.154;13.570;2023-02-17T10:13:00;11.50;99.90
72940;DHT22;61094;51.154;13.570;2023-02-17T10:15:08;11.50;99.90
72940;DHT22;61094;51.154;13.570;2023-02-17T10:17:15;11.50;99.90
72940;DHT22;61094;51.154;13.570;2023-02-17T10:19:20;11.60;99.40
72940;DHT22;61094;51.154;13.570;2023-02-17T10:21:28;11.60;99.90
72940;DHT22;61094;51.154;13.570;2023-02-17T10:23:31;11.60;99.90
72940;DHT22;61094;51.154;13.570;2023-02-17T10:25:50;11.60;99.70
72940;DHT22;61094;51.154;13.570;2023-02-17T10:28:01;11.70;99.90
72940;DHT22;61094;51.154;13.570;2023-02-17T10:30:22;11.70;99.90
72940;DHT22;61094;51.154;13.570;2023-02-17T10:32:27;11.70;99.90
72940;DHT22;61094;51.154;13.570;2023-02-17T10:34:34;11.80;99.90
72940;DHT22;61094;51.154;13.570;2023-02-17T10:36:43;11.80;99.90
72940;DHT22;61094;51.154;13.570;2023-02-17T10:38:53;11.80;99.90
72940;DHT22;61094;51.154;13.570;2023-02-17T10:40:59;11.80;99.90
72940;DHT22;61094;51.154;13.570;2023-02-17T10:43:05;11.80;99.90
72940;DHT22;61094;51.154;13.570;2023-02-17T10:45:13;11.80;99.90
72940;DHT22;61094;51.154;13.570;2023-02-17T10:47:16;11.80;99.90
72940;DHT22;61094;51.154;13.570;2023-02-17T10:49:25;11.90;99.90
72940;DHT22;61094;51.154;13.570;2023-02-17T10:51:29;11.90;99.90
72940;DHT22;61094;51.154;13.570;2023-02-17T10:53:33;11.90;99.20
72940;DHT22;61094;51.154;13.570;2023-02-17T10:55:37;11.90;99.50
72940;DHT22;61094;51.154;13.570;2023-02-17T10:57:40;11.90;99.60
72940;DHT22;61094;51.154;13.570;2023-02-17T10:59:45;11.90;99.00
72940;DHT22;61094;51.154;13.570;2023-02-17T11:01:47;11.90;98.90
72940;DHT22;61094;51.154;13.570;2023-02-17T11:03:59;11.90;99.50
72940;DHT22;61094;51.154;13.570;2023-02-17T11:06:03;11.90;99.40
72940;DHT22;61094;51.154;13.570;2023-02-17T11:08:27;11.80;99.10
72940;DHT22;61094;51.154;13.570;2023-02-17T11:10:32;11.90;99.10
72940;DHT22;61094;51.154;13.570;2023-02-17T11:12:38;11.80;99.80
72940;DHT22;61094;51.154;13.570;2023-02-17T11:14:44;11.80;99.90
72940;DHT22;61094;51.154;13.570;2023-02-17T11:16:51;11.80;99.90
72940;DHT22;61094;51.154;13.570;2023-02-17T11:18:54;11.70;99.90
72940;DHT22;61094;51.154;13.570;2023-02-17T11:21:01;11.70;99.90
72940;DHT22;61094;51.154;13.570;2023-02-17T11:23:20;11.70;99.90
72940;DHT22;61094;51.154;13.570;2023-02-17T11:25:25;11.70;99.90
72940;DHT22;61094;51.154;13.570;2023-02-17T11:27:28;11.70;99.90
72940;DHT22;61094;51.154;13.570;2023-02-17T11:29:30;11.70;99.90
72940;DHT22;61094;51.154;13.570;2023-02-17T11:31:33;11.70;99.90
72940;DHT22;61094;51.154;13.570;2023-02-17T11:33:38;11.70;99.90
72940;DHT22;61094;51.154;13.570;2023-02-17T11:35:48;11.70;99.90
72940;DHT22;61094;51.154;13.570;2023-02-17T11:37:59;11.70;99.90
72940;DHT22;61094;51.154;13.570;2023-02-17T11:40:21;11.80;99.90
72940;DHT22;61094;51.154;13.570;2023-02-17T11:42:24;11.80;99.90
72940;DHT22;61094;51.154;13.570;2023-02-17T11:44:28;11.80;99.90
72940;DHT22;61094;51.154;13.570;2023-02-17T11:46:35;11.90;99.90
72940;DHT22;61094;51.154;13.570;2023-02-17T11:48:52;11.90;99.90
72940;DHT22;61094;51.154;13.570;2023-02-17T11:50:59;12.00;99.90
72940;DHT22;61094;51.154;13.570;2023-02-17T11:53:16;12.10;99.90
72940;DHT22;61094;51.154;13.570;2023-02-17T11:55:21;12.10;99.90
72940;DHT22;61094;51.154;13.570;2023-02-17T11:57:34;12.20;99.90
72940;DHT22;61094;51.154;13.570;2023-02-17T11:59:51;12.20;99.90
72940;DHT22;61094;51.154;13.570;2023-02-17T12:02:15;12.20;99.90
72940;DHT22;61094;51.154;13.570;2023-02-17T12:04:26;12.20;99.90
72940;DHT22;61094;51.154;13.570;2023-02-17T12:06:35;12.30;99.90
72940;DHT22;61094;51.154;13.570;2023-02-17T12:08:58;12.30;99.90
72940;DHT22;61094;51.154;13.570;2023-02-17T12:11:08;12.30;99.90
72940;DHT22;61094;51.154;13.570;2023-02-17T12:13:21;12.40;99.90
72940;DHT22;61094;51.154;13.570;2023-02-17T12:15:37;12.40;99.90
72940;DHT22;61094;51.154;13.570;2023-02-17T12:17:48;12.40;99.90
72940;DHT22;61094;51.154;13.570;2023-02-17T12:19:56;12.50;99.90
72940;DHT22;61094;51.154;13.570;2023-02-17T12:22:12;12.50;99.90
72940;DHT22;61094;51.154;13.570;2023-02-17T12:24:26;12.50;99.90
72940;DHT22;61094;51.154;13.570;2023-02-17T12:26:36;12.60;99.90
72940;DHT22;61094;51.154;13.570;2023-02-17T12:29:00;12.60;99.50
72940;DHT22;61094;51.154;13.570;2023-02-17T12:31:10;12.60;99.90
72940;DHT22;61094;51.154;13.570;2023-02-17T12:33:37;12.70;99.90
72940;DHT22;61094;51.154;13.570;2023-02-17T12:35:48;12.80;99.80
72940;DHT22;61094;51.154;13.570;2023-02-17T12:37:54;12.80;99.80
72940;DHT22;61094;51.154;13.570;2023-02-17T12:39:58;12.80;99.90
72940;DHT22;61094;51.154;13.570;2023-02-17T12:42:03;12.80;99.40
72940;DHT22;61094;51.154;13.570;2023-02-17T12:44:13;12.90;99.70
72940;DHT22;61094;51.154;13.570;2023-02-17T12:46:20;13.00;99.80
72940;DHT22;61094;51.154;13.570;2023-02-17T12:48:27;13.00;98.70
72940;DHT22;61094;51.154;13.570;2023-02-17T12:50:32;13.10;98.80
72940;DHT22;61094;51.154;13.570;2023-02-17T12:52:39;13.10;99.30
72940;DHT22;61094;51.154;13.570;2023-02-17T12:54:45;13.10;99.30
72940;DHT22;61094;51.154;13.570;2023-02-17T12:56:56;13.20;98.80
72940;DHT22;61094;51.154;13.570;2023-02-17T12:59:09;13.20;98.90
72940;DHT22;61094;51.154;13.570;2023-02-17T13:01:14;13.20;98.80
72940;DHT22;61094;51.154;13.570;2023-02-17T13:03:20;13.20;99.30